Latest Weather Observations for Keith West

IDS60801

Issued at 7:01 pm CDT Saturday 16 December 2017 (issued every 30 minutes, with the page automatically refreshed every 10 minutes)

About weather observations | Map of weather stations | Latest weather observations for SA | Other Formats
Station Details ID: 025557 Name: MUNKORA Lat: -36.11 Lon: 140.33 Height: 27.0 m
Data from the previous 72 hours. | See also: Recent months at Keith West
Date/Time
CDT
Temp
°C
App
Temp
°C
Dew
Point
°C
Rel
Hum
%
Delta-T
°C
Wind Press
QNH
hPa
Press
MSL
hPa
Rain since
9am
mm
Dir  Spd
km/h
Gust
km/h
Spd
kts
Gust
kts
16/07:00pm 24.0 19.2 10.3 42 7.6 SW 26 33 14 18 1013.9 1013.8 0.0
16/06:30pm 25.5 21.2 9.3 36 8.9 SW 22 28 12 15 1013.5 1013.4 0.0
16/06:00pm 26.4 22.5 9.3 34 9.4 SW 20 30 11 16 1013.1 1013.0 0.0
16/05:30pm 27.4 24.4 7.8 29 10.5 SW 13 24 7 13 1013.0 1012.9 0.0
16/05:00pm 27.5 24.0 7.4 28 10.7 SW 15 26 8 14 1013.1 1013.0 0.0
16/04:30pm 27.8 25.8 7.1 27 11.0 S 7 17 4 9 1013.3 1013.2 0.0
16/04:00pm 27.9 24.5 7.7 28 10.9 WSW 15 20 8 11 1013.5 1013.4 0.0
16/03:30pm 26.8 24.4 6.8 28 10.5 S 9 20 5 11 1013.8 1013.7 0.0
16/03:00pm 27.2 24.2 7.6 29 10.5 SW 13 22 7 12 1014.0 1013.9 0.0
16/02:30pm 26.8 23.8 7.8 30 10.2 SW 13 22 7 12 1014.3 1014.2 0.0
16/02:00pm 26.5 24.1 8.5 32 9.8 SW 11 19 6 10 1014.7 1014.6 0.0
16/01:30pm 26.0 23.7 8.9 34 9.3 S 11 20 6 11 1014.9 1014.8 0.0
16/01:00pm 25.2 22.5 9.1 36 8.8 SSW 13 22 7 12 1015.3 1015.2 0.0
16/12:30pm 24.6 23.2 9.7 39 8.2 N 7 17 4 9 1015.5 1015.4 0.0
16/12:00pm 23.3 22.4 9.3 41 7.6 WNW 4 11 2 6 1015.8 1015.7 0.0
16/11:30am 22.9 20.9 10.0 44 7.0 SW 11 17 6 9 1016.0 1015.9 0.0
16/11:00am 22.5 21.6 10.6 47 6.6 SSW 6 11 3 6 1016.0 1015.9 0.0
16/10:30am 21.6 20.1 10.7 50 6.0 WSW 9 22 5 12 1016.1 1016.0 0.0
16/10:00am 20.9 20.0 11.5 55 5.2 SSW 7 13 4 7 1016.1 1016.0 0.0
16/09:30am 18.9 18.7 11.9 64 3.9 W 4 6 2 3 1016.1 1016.0 0.0
16/09:00am 18.4 18.3 12.2 67 3.4 WSW 4 7 2 4 1016.2 1016.1 0.0
16/08:30am 18.1 18.0 12.1 68 3.3 W 4 7 2 4 1015.9 1015.8 0.0
16/08:00am 15.6 16.2 12.0 79 2.0 CALM 0 0 0 0 1015.7 1015.6 0.0
16/07:30am 13.2 13.1 12.1 93 0.6 N 4 4 2 2 1015.3 1015.2 0.0
16/07:00am 10.8 10.8 9.9 94 0.5 CALM 0 0 0 0 1014.7 1014.6 0.0
16/06:30am 8.6 6.9 7.5 93 0.5 SSW 6 6 3 3 1014.3 1014.2 0.0
16/06:00am 7.1 5.4 5.9 92 0.5 SSW 4 4 2 2 1014.1 1014.0 0.0
16/05:30am 6.8 5.0 5.6 92 0.5 SSW 4 6 2 3 1013.9 1013.8 0.0
16/05:00am 7.1 5.8 5.9 92 0.5 SSW 2 2 1 1 1013.7 1013.6 0.0
16/04:30am 7.0 6.0 5.6 91 0.6 CALM 0 0 0 0 1013.5 1013.4 0.0
16/04:00am 7.0 6.0 5.6 91 0.6 CALM 0 0 0 0 1013.3 1013.2 0.0
16/03:30am 7.1 6.1 5.6 90 0.7 CALM 0 0 0 0 1013.2 1013.1 0.0
16/03:00am 7.5 6.5 5.6 88 0.9 CALM 0 0 0 0 1013.2 1013.1 0.0
16/02:30am 8.6 7.8 6.7 88 0.9 CALM 0 0 0 0 1013.2 1013.1 0.0
16/02:00am 9.9 9.0 7.8 87 1.0 SSW 2 2 1 1 1013.3 1013.2 0.0
16/01:30am 10.5 9.2 7.6 82 1.4 SSW 4 4 2 2 1013.3 1013.2 0.0
16/01:00am 11.8 10.2 8.8 82 1.5 SSW 7 7 4 4 1013.4 1013.3 0.0
16/12:30am 12.4 10.6 9.4 82 1.5 SW 9 11 5 6 1013.6 1013.5 0.0
16/12:00am 12.5 10.6 9.0 79 1.8 SW 9 9 5 5 1013.7 1013.6 0.0
 
Date/Time
CDT
Temp
°C
App
Temp
°C
Dew
Point
°C
Rel
Hum
%
Delta-T
°C
Wind Press
QNH
hPa
Press
MSL
hPa
Rain since
9am
mm
Dir  Spd
km/h
Gust
km/h
Spd
kts
Gust
kts
15/11:30pm 12.6 11.0 8.9 78 1.9 SW 7 9 4 5 1013.8 1013.7 0.0
15/11:00pm 12.9 11.4 8.6 75 2.1 SW 6 7 3 4 1013.8 1013.7 0.0
15/10:30pm 13.4 11.7 8.5 72 2.5 SSW 7 11 4 6 1013.7 1013.6 0.0
15/10:00pm 14.2 12.1 8.4 68 2.9 SSW 9 11 5 6 1013.6 1013.5 0.0
15/09:30pm 15.4 12.9 8.4 63 3.5 SW 11 15 6 8 1013.3 1013.2 0.0
15/09:00pm 16.2 13.5 7.4 56 4.4 SW 11 13 6 7 1012.9 1012.8 0.0
15/08:30pm 17.7 15.0 7.2 50 5.3 SW 11 15 6 8 1012.7 1012.6 0.0
15/08:00pm 19.3 15.5 7.4 46 6.1 SW 17 24 9 13 1012.4 1012.3 0.0
15/07:30pm 20.0 16.1 7.1 43 6.6 SW 17 22 9 12 1012.0 1011.9 0.0
15/07:00pm 21.6 16.8 5.5 35 8.0 SW 20 28 11 15 1011.6 1011.5 0.0
15/06:30pm 22.6 17.7 6.8 36 8.1 SW 22 32 12 17 1011.3 1011.2 0.0
15/06:00pm 24.5 19.9 6.7 32 9.2 SW 20 32 11 17 1010.9 1010.8 0.0
15/05:30pm 25.1 21.2 7.3 32 9.4 WSW 17 26 9 14 1010.6 1010.5 0.0
15/05:00pm 24.7 20.4 6.9 32 9.3 SW 19 24 10 13 1010.7 1010.6 0.0
15/04:30pm 25.2 21.0 7.3 32 9.4 WSW 19 26 10 14 1010.7 1010.6 0.0
15/04:00pm 25.9 21.3 8.0 32 9.6 WSW 22 35 12 19 1010.9 1010.8 0.0
15/03:30pm 25.8 21.7 7.9 32 9.6 SW 19 28 10 15 1010.9 1010.8 0.0
15/03:00pm 25.8 22.1 6.4 29 10.1 WSW 15 32 8 17 1011.1 1011.0 0.0
15/02:30pm 25.3 22.1 5.0 27 10.3 WNW 11 24 6 13 1011.3 1011.2 0.0
15/02:00pm 25.8 22.8 5.9 28 10.3 W 11 22 6 12 1011.6 1011.5 0.0
15/01:30pm 24.9 21.8 5.7 29 9.8 WNW 11 24 6 13 1012.0 1011.9 0.0
15/01:00pm 24.8 21.5 6.5 31 9.5 WSW 13 20 7 11 1012.3 1012.2 0.0
15/12:30pm - - - - - WNW 6 15 3 8 1012.5 1012.4 0.0
15/12:00pm 23.4 21.2 6.2 33 8.8 SW 7 15 4 8 1012.9 1012.8 0.0
15/11:30am 21.5 19.1 5.4 35 8.0 SW 7 13 4 7 1013.2 1013.1 0.0
15/11:00am 20.6 18.6 6.9 41 7.0 N 7 17 4 9 1013.5 1013.4 0.0
15/10:30am - - - - - WSW 2 6 1 3 1013.9 1013.8 0.0
15/10:00am - - - - - ESE 6 9 3 5 1014.0 1013.9 0.0
15/09:30am - - - - - NE 2 7 1 4 1014.1 1014.0 0.0
15/09:00am - - - - - SSE 6 11 3 6 1014.1 1014.0 0.0
15/08:30am - - - - - ENE 4 9 2 5 1014.3 1014.2 0.0
15/08:00am - - - - - CALM 0 4 0 2 1014.3 1014.2 0.0
15/07:30am - - - - - CALM 0 0 0 0 1014.2 1014.1 0.0
15/07:00am - - - - - W 4 4 2 2 1014.1 1014.0 0.0
15/06:30am - - - - - N 4 4 2 2 1013.9 1013.8 0.0
15/06:00am - - - - - N 4 6 2 3 1013.7 1013.6 0.0
15/05:30am - - - - - N 2 4 1 2 1013.2 1013.1 0.0
15/05:00am 5.6 4.4 4.6 93 0.4 CALM 0 0 0 0 1013.0 1012.9 0.0
15/04:30am 5.4 3.8 4.4 93 0.4 N 2 2 1 1 1012.8 1012.7 0.0
15/04:00am 5.6 3.6 4.4 92 0.5 SE 4 4 2 2 1012.9 1012.8 0.0
15/03:30am 5.7 4.4 4.2 90 0.6 CALM 0 0 0 0 1012.7 1012.6 0.0
15/03:00am 8.5 7.1 7.3 92 0.6 SSE 4 6 2 3 1012.7 1012.6 0.0
15/02:30am 9.2 7.9 7.8 91 0.7 S 4 6 2 3 1013.0 1012.9 0.0
15/02:00am 8.6 6.7 6.9 89 0.8 SSE 6 9 3 5 1013.1 1013.0 0.0
15/01:30am 9.0 7.2 7.1 88 0.9 S 6 6 3 3 1013.4 1013.3 0.0
15/01:00am 10.6 9.2 8.9 89 0.8 SSW 6 6 3 3 1013.5 1013.4 0.0
15/12:30am 10.3 8.7 8.2 87 1.0 SSW 6 7 3 4 1013.7 1013.6 0.0
15/12:00am 11.2 10.1 8.6 84 1.3 SSW 4 6 2 3 1013.8 1013.7 0.0
 
Date/Time
CDT
Temp
°C
App
Temp
°C
Dew
Point
°C
Rel
Hum
%
Delta-T
°C
Wind Press
QNH
hPa
Press
MSL
hPa
Rain since
9am
mm
Dir  Spd
km/h
Gust
km/h
Spd
kts
Gust
kts
14/11:30pm 12.3 10.6 9.9 85 1.2 SSW 9 13 5 7 1013.6 1013.5 0.0
14/11:00pm 12.4 10.6 9.4 82 1.5 SSW 9 13 5 7 1013.5 1013.4 0.0
14/10:30pm 13.7 11.6 9.9 78 2.0 SSW 11 17 6 9 1013.5 1013.4 0.0
14/10:00pm 14.2 12.1 9.8 75 2.3 SW 11 13 6 7 1013.6 1013.5 0.0
14/09:30pm 15.1 12.6 9.7 70 2.8 SW 13 19 7 10 1013.3 1013.2 0.0
14/09:00pm 16.1 13.3 10.0 67 3.2 SW 15 19 8 10 1013.1 1013.0 0.0
14/08:30pm 16.8 13.5 9.5 62 3.8 SW 17 22 9 12 1012.9 1012.8 0.0
14/08:00pm 18.1 14.7 9.2 56 4.7 SW 17 24 9 13 1012.7 1012.6 0.0
14/07:30pm 19.3 15.3 8.9 51 5.5 SW 20 28 11 15 1012.2 1012.1 0.0
14/07:00pm 20.4 16.2 8.1 45 6.4 SW 20 30 11 16 1011.8 1011.7 0.0
14/06:30pm 21.6 17.4 8.1 42 7.1 SW 20 28 11 15 1011.6 1011.5 0.0
14/06:00pm 21.8 16.7 7.6 40 7.4 SW 24 32 13 17 1011.3 1011.2 0.0
14/05:30pm 22.7 17.8 6.9 36 8.1 SW 22 33 12 18 1011.0 1010.9 0.0
14/05:00pm 23.4 18.1 6.7 34 8.6 WSW 24 33 13 18 1011.2 1011.1 0.0
14/04:30pm 23.6 18.6 6.4 33 8.8 WSW 22 33 12 18 1011.1 1011.0 0.0
14/04:00pm 23.8 19.2 6.6 33 8.9 WSW 20 32 11 17 1011.0 1010.9 0.0
14/03:30pm 24.2 19.3 6.9 33 9.0 SW 22 33 12 18 1010.9 1010.8 0.0
14/03:00pm 24.8 19.8 6.5 31 9.5 WSW 22 35 12 19 1010.6 1010.5 0.0
14/02:30pm 24.2 19.3 6.9 33 9.0 WSW 22 35 12 19 1010.7 1010.6 0.0
14/02:00pm 24.1 19.6 8.5 37 8.3 WSW 22 33 12 18 1010.6 1010.5 0.0
14/01:30pm 24.1 19.8 9.3 39 8.0 WSW 22 35 12 19 1010.7 1010.6 0.0
14/01:00pm 23.7 20.6 10.4 43 7.3 WSW 17 32 9 17 1010.9 1010.8 0.0
14/12:30pm 23.6 20.1 10.3 43 7.3 W 19 30 10 16 1010.8 1010.7 0.0
14/12:00pm 22.4 19.0 11.2 49 6.2 WSW 20 32 11 17 1010.9 1010.8 0.0
14/11:30am 22.3 19.7 12.0 52 5.8 WSW 17 28 9 15 1011.0 1010.9 0.0
14/11:00am 21.9 19.0 13.0 57 5.1 WSW 20 30 11 16 1010.9 1010.8 0.0
14/10:30am 20.9 18.3 13.1 61 4.5 SW 19 26 10 14 1010.7 1010.6 0.0
14/10:00am 20.1 17.2 12.8 63 4.1 SW 20 28 11 15 1010.6 1010.5 0.0
14/09:30am 19.9 17.2 13.6 67 3.6 WSW 20 28 11 15 1010.2 1010.1 0.0
14/09:00am 19.6 17.4 13.3 67 3.6 WSW 17 24 9 13 1010.0 1009.9 0.0
14/08:30am 18.4 16.3 13.5 73 2.8 WSW 17 20 9 11 1010.0 1009.9 0.0
14/08:00am 17.5 15.6 14.2 81 1.9 WSW 17 24 9 13 1009.6 1009.5 0.0
14/07:30am 16.9 17.0 15.4 91 0.9 WSW 9 15 5 8 1009.5 1009.4 0.0
14/07:00am 16.9 16.9 15.1 89 1.0 WSW 9 11 5 6 1008.8 1008.7 0.0
14/06:30am 17.3 17.1 14.6 84 1.6 SW 9 13 5 7 1008.3 1008.2 0.0
14/06:00am 17.3 16.2 14.4 83 1.7 SSW 13 20 7 11 1007.7 1007.6 0.0
14/05:30am 17.3 15.9 14.4 83 1.7 SSW 15 19 8 10 1007.1 1007.0 0.0
14/05:00am 17.3 15.5 14.4 83 1.7 SW 17 24 9 13 1006.8 1006.7 0.0
14/04:30am 17.1 16.1 14.6 85 1.4 SW 13 19 7 10 1006.7 1006.6 0.0
14/04:00am 17.1 15.4 14.7 86 1.4 SW 17 26 9 14 1006.5 1006.4 0.0
14/03:30am 17.3 16.1 15.1 87 1.3 SW 15 20 8 11 1006.0 1005.9 0.0
14/03:00am 16.6 17.0 15.3 92 0.8 WSW 7 15 4 8 1005.8 1005.7 0.0
14/02:30am 15.4 15.5 13.8 90 0.9 NW 6 6 3 3 1005.9 1005.8 0.0
14/02:00am 15.3 15.0 13.2 87 1.2 W 7 9 4 5 1005.9 1005.8 0.0
14/01:30am 16.2 15.7 13.9 86 1.3 WSW 9 13 5 7 1006.0 1005.9 0.0
14/01:00am 17.2 16.8 14.1 82 1.8 WSW 9 11 5 6 1006.0 1005.9 0.0
14/12:30am 18.0 18.0 14.1 78 2.2 WSW 7 9 4 5 1006.0 1005.9 0.0
14/12:00am 18.9 18.4 13.7 72 3.0 W 9 11 5 6 1006.0 1005.9 0.0
 
Date/Time
CDT
Temp
°C
App
Temp
°C
Dew
Point
°C
Rel
Hum
%
Delta-T
°C
Wind Press
QNH
hPa
Press
MSL
hPa
Rain since
9am
mm
Dir  Spd
km/h
Gust
km/h
Spd
kts
Gust
kts
13/11:30pm 20.1 18.4 13.6 66 3.7 WSW 15 20 8 11 1005.8 1005.7 0.0
13/11:00pm 21.4 18.8 13.1 59 4.7 WSW 19 28 10 15 1005.8 1005.7 0.0
13/10:30pm 22.7 20.7 12.6 53 5.8 SW 15 24 8 13 1005.6 1005.5 0.0
13/10:00pm 23.3 21.8 12.0 49 6.4 WSW 11 19 6 10 1005.9 1005.8 0.0
13/09:30pm 23.2 22.0 11.6 48 6.5 SW 9 15 5 8 1005.6 1005.5 0.0
13/09:00pm 23.1 22.9 10.5 45 7.0 SW 2 6 1 3 1004.8 1004.7 0.0
13/08:30pm 24.3 23.1 9.5 39 8.1 W 6 6 3 3 1005.5 1005.4 0.0
13/08:00pm 25.1 22.8 9.0 36 8.7 SW 11 17 6 9 1005.1 1005.0 0.0
13/07:30pm 26.3 23.2 8.8 33 9.6 SW 15 24 8 13 1004.8 1004.7 0.0

Other Formats:

Comma delimited format used in spreadsheet applications
http://www.bom.gov.au/fwo/IDS60801/IDS60801.95815.axf

JavaScript Object Notation format (JSON) in row-major order
http://www.bom.gov.au/fwo/IDS60801/IDS60801.95815.json